Solitude, Indiana
Current Conditions -  °F | °C
As of 12:15 AM on Saturday 01 Nov 2014 (Local Time) from KCUL Reporting Station
Scattered Clouds Scattered Clouds  
Wind Chill: 29°   Ceiling: Unl
Heat Index: 38°   Visibility: 10mi
Dew Point: 26°   Wind: 18mph
Humidity: 62%   Direction: 330°NNW
Pressure: 30.26"   Gusts: 23mph
Location:  37.9469°N, 87.9016°W
Report Text: KCUL 010515Z AUTO 33016G20KT 10SM SCT048 04/M03 A3026 RMK AO2 T00351032
Loading
Personal Weather Stations






























Interactive Weather Map New forecast layout! Learn more

10-Day Weather Forecast

Advertisements
Track Severe Weather on mobile